sensor_id;sensor_type;location;lat;lon;timestamp;temperature;humidity
27671;DHT22;15077;49.704;9.908;2022-08-30T00:01:13;21.80;44.90
27671;DHT22;15077;49.704;9.908;2022-08-30T00:03:46;21.70;45.00
27671;DHT22;15077;49.704;9.908;2022-08-30T00:06:14;21.70;45.00
27671;DHT22;15077;49.704;9.908;2022-08-30T00:08:43;21.70;45.10
27671;DHT22;15077;49.704;9.908;2022-08-30T00:11:12;21.70;45.10
27671;DHT22;15077;49.704;9.908;2022-08-30T00:13:41;21.60;45.20
27671;DHT22;15077;49.704;9.908;2022-08-30T00:16:09;21.60;45.20
27671;DHT22;15077;49.704;9.908;2022-08-30T00:18:38;21.60;45.10
27671;DHT22;15077;49.704;9.908;2022-08-30T00:21:05;21.60;45.30
27671;DHT22;15077;49.704;9.908;2022-08-30T00:23:31;21.60;45.30
27671;DHT22;15077;49.704;9.908;2022-08-30T00:25:58;21.50;45.30
27671;DHT22;15077;49.704;9.908;2022-08-30T00:28:24;21.50;45.50
27671;DHT22;15077;49.704;9.908;2022-08-30T00:30:50;21.40;45.90
27671;DHT22;15077;49.704;9.908;2022-08-30T00:33:16;21.50;45.70
27671;DHT22;15077;49.704;9.908;2022-08-30T00:35:43;21.40;45.60
27671;DHT22;15077;49.704;9.908;2022-08-30T00:38:10;21.40;45.60
27671;DHT22;15077;49.704;9.908;2022-08-30T00:40:38;21.30;45.70
27671;DHT22;15077;49.704;9.908;2022-08-30T00:43:10;21.30;45.80
27671;DHT22;15077;49.704;9.908;2022-08-30T00:45:38;21.20;45.90
27671;DHT22;15077;49.704;9.908;2022-08-30T00:48:05;21.20;45.80
27671;DHT22;15077;49.704;9.908;2022-08-30T00:50:35;21.10;46.00
27671;DHT22;15077;49.704;9.908;2022-08-30T00:53:06;21.10;46.00
27671;DHT22;15077;49.704;9.908;2022-08-30T00:55:35;21.10;46.00
27671;DHT22;15077;49.704;9.908;2022-08-30T00:58:04;21.10;46.00
27671;DHT22;15077;49.704;9.908;2022-08-30T01:00:32;21.10;46.20
27671;DHT22;15077;49.704;9.908;2022-08-30T01:02:58;21.00;46.20
27671;DHT22;15077;49.704;9.908;2022-08-30T01:05:24;21.00;46.20
27671;DHT22;15077;49.704;9.908;2022-08-30T01:07:50;20.90;46.80
27671;DHT22;15077;49.704;9.908;2022-08-30T01:10:17;20.90;46.40
27671;DHT22;15077;49.704;9.908;2022-08-30T01:12:44;20.90;46.50
27671;DHT22;15077;49.704;9.908;2022-08-30T01:15:13;20.80;46.50
27671;DHT22;15077;49.704;9.908;2022-08-30T01:17:41;20.80;46.60
27671;DHT22;15077;49.704;9.908;2022-08-30T01:20:36;20.80;46.60
27671;DHT22;15077;49.704;9.908;2022-08-30T01:23:12;20.70;46.70
27671;DHT22;15077;49.704;9.908;2022-08-30T01:25:43;20.70;46.70
27671;DHT22;15077;49.704;9.908;2022-08-30T01:28:19;20.70;46.70
27671;DHT22;15077;49.704;9.908;2022-08-30T01:30:48;20.70;47.00
27671;DHT22;15077;49.704;9.908;2022-08-30T01:33:14;20.60;46.80
27671;DHT22;15077;49.704;9.908;2022-08-30T01:35:54;20.60;46.90
27671;DHT22;15077;49.704;9.908;2022-08-30T01:38:33;20.60;47.20
27671;DHT22;15077;49.704;9.908;2022-08-30T01:43:39;20.50;47.20
27671;DHT22;15077;49.704;9.908;2022-08-30T01:46:06;20.50;47.20
27671;DHT22;15077;49.704;9.908;2022-08-30T01:48:32;20.50;47.20
27671;DHT22;15077;49.704;9.908;2022-08-30T01:50:59;20.40;47.30
27671;DHT22;15077;49.704;9.908;2022-08-30T01:53:25;20.40;47.30
27671;DHT22;15077;49.704;9.908;2022-08-30T01:55:51;20.40;47.30
27671;DHT22;15077;49.704;9.908;2022-08-30T01:58:16;20.30;47.40
27671;DHT22;15077;49.704;9.908;2022-08-30T02:00:42;20.30;47.50
27671;DHT22;15077;49.704;9.908;2022-08-30T02:03:08;20.30;47.50
27671;DHT22;15077;49.704;9.908;2022-08-30T02:05:34;20.30;47.60
27671;DHT22;15077;49.704;9.908;2022-08-30T02:08:00;20.20;47.80
27671;DHT22;15077;49.704;9.908;2022-08-30T02:10:26;20.20;47.60
27671;DHT22;15077;49.704;9.908;2022-08-30T02:12:51;20.20;47.70
27671;DHT22;15077;49.704;9.908;2022-08-30T02:15:17;20.20;47.80
27671;DHT22;15077;49.704;9.908;2022-08-30T02:17:43;20.20;47.80
27671;DHT22;15077;49.704;9.908;2022-08-30T02:20:09;20.20;47.90
27671;DHT22;15077;49.704;9.908;2022-08-30T02:22:36;20.10;48.00
27671;DHT22;15077;49.704;9.908;2022-08-30T02:25:06;20.10;47.80
27671;DHT22;15077;49.704;9.908;2022-08-30T02:27:34;20.10;48.00
27671;DHT22;15077;49.704;9.908;2022-08-30T02:30:00;20.10;47.90
27671;DHT22;15077;49.704;9.908;2022-08-30T02:32:26;20.10;47.90
27671;DHT22;15077;49.704;9.908;2022-08-30T02:34:52;20.10;48.70
27671;DHT22;15077;49.704;9.908;2022-08-30T02:37:19;20.10;48.00
27671;DHT22;15077;49.704;9.908;2022-08-30T02:39:44;20.00;48.00
27671;DHT22;15077;49.704;9.908;2022-08-30T02:42:10;20.00;48.00
27671;DHT22;15077;49.704;9.908;2022-08-30T02:44:36;20.00;48.10
27671;DHT22;15077;49.704;9.908;2022-08-30T02:47:03;20.00;48.10
27671;DHT22;15077;49.704;9.908;2022-08-30T02:49:29;19.90;48.30
27671;DHT22;15077;49.704;9.908;2022-08-30T02:51:54;20.00;48.30
27671;DHT22;15077;49.704;9.908;2022-08-30T02:54:20;19.90;48.20
27671;DHT22;15077;49.704;9.908;2022-08-30T02:56:47;19.90;48.30
27671;DHT22;15077;49.704;9.908;2022-08-30T02:59:15;19.90;48.40
27671;DHT22;15077;49.704;9.908;2022-08-30T03:01:42;19.90;48.50
27671;DHT22;15077;49.704;9.908;2022-08-30T03:04:08;19.80;48.40
27671;DHT22;15077;49.704;9.908;2022-08-30T03:06:35;19.80;48.50
27671;DHT22;15077;49.704;9.908;2022-08-30T03:09:01;19.80;48.60
27671;DHT22;15077;49.704;9.908;2022-08-30T03:11:28;19.80;48.70
27671;DHT22;15077;49.704;9.908;2022-08-30T03:13:54;19.70;48.50
27671;DHT22;15077;49.704;9.908;2022-08-30T03:16:20;19.70;48.70
27671;DHT22;15077;49.704;9.908;2022-08-30T03:18:47;19.70;48.70
27671;DHT22;15077;49.704;9.908;2022-08-30T03:21:14;19.60;48.70
27671;DHT22;15077;49.704;9.908;2022-08-30T03:23:41;19.60;49.10
27671;DHT22;15077;49.704;9.908;2022-08-30T03:26:08;19.60;49.00
27671;DHT22;15077;49.704;9.908;2022-08-30T03:28:40;19.50;49.00
27671;DHT22;15077;49.704;9.908;2022-08-30T03:31:07;19.50;49.00
27671;DHT22;15077;49.704;9.908;2022-08-30T03:33:34;19.50;49.00
27671;DHT22;15077;49.704;9.908;2022-08-30T03:36:01;19.50;49.10
27671;DHT22;15077;49.704;9.908;2022-08-30T03:38:27;19.40;49.00
27671;DHT22;15077;49.704;9.908;2022-08-30T03:40:53;19.40;49.10
27671;DHT22;15077;49.704;9.908;2022-08-30T03:43:19;19.40;49.20
27671;DHT22;15077;49.704;9.908;2022-08-30T03:45:44;19.40;49.20
27671;DHT22;15077;49.704;9.908;2022-08-30T03:48:10;19.40;49.20
27671;DHT22;15077;49.704;9.908;2022-08-30T03:50:36;19.40;49.30
27671;DHT22;15077;49.704;9.908;2022-08-30T03:53:02;19.40;49.30
27671;DHT22;15077;49.704;9.908;2022-08-30T03:55:29;19.40;49.40
27671;DHT22;15077;49.704;9.908;2022-08-30T03:57:55;19.40;49.40
27671;DHT22;15077;49.704;9.908;2022-08-30T04:00:21;19.40;49.50
27671;DHT22;15077;49.704;9.908;2022-08-30T04:02:47;19.40;49.60
27671;DHT22;15077;49.704;9.908;2022-08-30T04:05:13;19.40;49.70
27671;DHT22;15077;49.704;9.908;2022-08-30T04:07:39;19.40;49.70
27671;DHT22;15077;49.704;9.908;2022-08-30T04:10:07;19.40;49.70
27671;DHT22;15077;49.704;9.908;2022-08-30T04:12:33;19.30;50.10
27671;DHT22;15077;49.704;9.908;2022-08-30T04:15:00;19.30;49.70
27671;DHT22;15077;49.704;9.908;2022-08-30T04:17:27;19.30;49.70
27671;DHT22;15077;49.704;9.908;2022-08-30T04:19:52;19.30;49.80
27671;DHT22;15077;49.704;9.908;2022-08-30T04:22:18;19.30;49.90
27671;DHT22;15077;49.704;9.908;2022-08-30T04:24:44;19.30;50.00
27671;DHT22;15077;49.704;9.908;2022-08-30T04:27:10;19.30;49.90
27671;DHT22;15077;49.704;9.908;2022-08-30T04:29:36;19.20;49.90
27671;DHT22;15077;49.704;9.908;2022-08-30T04:32:02;19.20;49.90
27671;DHT22;15077;49.704;9.908;2022-08-30T04:34:28;19.20;50.00
27671;DHT22;15077;49.704;9.908;2022-08-30T04:36:53;19.20;49.90
27671;DHT22;15077;49.704;9.908;2022-08-30T04:39:20;19.20;50.10
27671;DHT22;15077;49.704;9.908;2022-08-30T04:41:45;19.10;50.00
27671;DHT22;15077;49.704;9.908;2022-08-30T04:44:11;19.10;50.10
27671;DHT22;15077;49.704;9.908;2022-08-30T04:46:37;19.10;50.10
27671;DHT22;15077;49.704;9.908;2022-08-30T04:49:04;19.10;50.30
27671;DHT22;15077;49.704;9.908;2022-08-30T04:51:30;19.10;50.30
27671;DHT22;15077;49.704;9.908;2022-08-30T04:53:56;19.10;50.30
27671;DHT22;15077;49.704;9.908;2022-08-30T04:56:23;19.00;50.30
27671;DHT22;15077;49.704;9.908;2022-08-30T04:58:52;19.00;50.30
27671;DHT22;15077;49.704;9.908;2022-08-30T05:01:22;19.00;50.40
27671;DHT22;15077;49.704;9.908;2022-08-30T05:03:52;19.00;50.50
27671;DHT22;15077;49.704;9.908;2022-08-30T05:06:19;19.00;50.40
27671;DHT22;15077;49.704;9.908;2022-08-30T05:08:45;19.00;50.60
27671;DHT22;15077;49.704;9.908;2022-08-30T05:11:12;19.00;50.40
27671;DHT22;15077;49.704;9.908;2022-08-30T05:13:39;19.00;50.60
27671;DHT22;15077;49.704;9.908;2022-08-30T05:16:06;19.00;50.60
27671;DHT22;15077;49.704;9.908;2022-08-30T05:18:34;19.00;50.60
27671;DHT22;15077;49.704;9.908;2022-08-30T05:21:13;18.90;50.60
27671;DHT22;15077;49.704;9.908;2022-08-30T05:23:53;19.00;50.80
27671;DHT22;15077;49.704;9.908;2022-08-30T05:26:29;19.00;50.80
27671;DHT22;15077;49.704;9.908;2022-08-30T05:28:59;18.90;50.90
27671;DHT22;15077;49.704;9.908;2022-08-30T05:31:29;18.90;50.70
27671;DHT22;15077;49.704;9.908;2022-08-30T05:33:57;18.90;50.90
27671;DHT22;15077;49.704;9.908;2022-08-30T05:36:26;18.90;50.90
27671;DHT22;15077;49.704;9.908;2022-08-30T05:38:54;19.00;51.20
27671;DHT22;15077;49.704;9.908;2022-08-30T05:41:22;19.00;51.10
27671;DHT22;15077;49.704;9.908;2022-08-30T05:43:52;19.00;51.20
27671;DHT22;15077;49.704;9.908;2022-08-30T05:46:22;19.00;51.30
27671;DHT22;15077;49.704;9.908;2022-08-30T05:48:49;19.00;51.40
27671;DHT22;15077;49.704;9.908;2022-08-30T05:51:19;18.90;51.30
27671;DHT22;15077;49.704;9.908;2022-08-30T05:53:48;19.00;51.50
27671;DHT22;15077;49.704;9.908;2022-08-30T05:56:18;19.00;51.50
27671;DHT22;15077;49.704;9.908;2022-08-30T05:58:46;19.00;51.70
27671;DHT22;15077;49.704;9.908;2022-08-30T06:01:23;18.90;51.80
27671;DHT22;15077;49.704;9.908;2022-08-30T06:04:03;19.00;52.00
27671;DHT22;15077;49.704;9.908;2022-08-30T06:06:33;19.00;52.00
27671;DHT22;15077;49.704;9.908;2022-08-30T06:09:05;19.00;52.00
27671;DHT22;15077;49.704;9.908;2022-08-30T06:11:33;19.00;52.20
27671;DHT22;15077;49.704;9.908;2022-08-30T06:13:59;19.00;52.60
27671;DHT22;15077;49.704;9.908;2022-08-30T06:16:27;19.00;52.60
27671;DHT22;15077;49.704;9.908;2022-08-30T06:18:56;19.00;53.00
27671;DHT22;15077;49.704;9.908;2022-08-30T06:21:32;19.00;52.60
27671;DHT22;15077;49.704;9.908;2022-08-30T06:24:00;19.10;52.80
27671;DHT22;15077;49.704;9.908;2022-08-30T06:26:27;19.10;52.80
27671;DHT22;15077;49.704;9.908;2022-08-30T06:28:55;19.10;52.70
27671;DHT22;15077;49.704;9.908;2022-08-30T06:31:22;19.10;52.60
27671;DHT22;15077;49.704;9.908;2022-08-30T06:33:50;19.20;52.70
27671;DHT22;15077;49.704;9.908;2022-08-30T06:36:21;19.20;52.70
27671;DHT22;15077;49.704;9.908;2022-08-30T06:38:53;19.30;52.80
27671;DHT22;15077;49.704;9.908;2022-08-30T06:41:23;19.30;52.70
27671;DHT22;15077;49.704;9.908;2022-08-30T06:43:52;19.30;52.50
27671;DHT22;15077;49.704;9.908;2022-08-30T06:46:22;19.40;52.70
27671;DHT22;15077;49.704;9.908;2022-08-30T06:48:50;19.40;53.30
27671;DHT22;15077;49.704;9.908;2022-08-30T06:51:21;19.50;53.20
27671;DHT22;15077;49.704;9.908;2022-08-30T06:53:48;19.50;53.40
27671;DHT22;15077;49.704;9.908;2022-08-30T06:56:15;19.60;53.40
27671;DHT22;15077;49.704;9.908;2022-08-30T06:58:43;19.60;53.40
27671;DHT22;15077;49.704;9.908;2022-08-30T07:01:15;19.70;53.40
27671;DHT22;15077;49.704;9.908;2022-08-30T07:03:43;19.70;53.80
27671;DHT22;15077;49.704;9.908;2022-08-30T07:06:09;19.80;53.60
27671;DHT22;15077;49.704;9.908;2022-08-30T07:08:36;19.80;53.60
27671;DHT22;15077;49.704;9.908;2022-08-30T07:11:03;19.90;53.70
27671;DHT22;15077;49.704;9.908;2022-08-30T07:13:30;20.00;53.70
27671;DHT22;15077;49.704;9.908;2022-08-30T07:15:56;20.00;53.90
27671;DHT22;15077;49.704;9.908;2022-08-30T07:18:22;20.10;54.00
27671;DHT22;15077;49.704;9.908;2022-08-30T07:21:10;20.10;53.80
27671;DHT22;15077;49.704;9.908;2022-08-30T07:23:38;20.20;53.80
27671;DHT22;15077;49.704;9.908;2022-08-30T07:26:05;20.20;53.70
27671;DHT22;15077;49.704;9.908;2022-08-30T07:28:36;20.30;53.90
27671;DHT22;15077;49.704;9.908;2022-08-30T07:31:03;20.30;53.70
27671;DHT22;15077;49.704;9.908;2022-08-30T07:33:30;20.40;53.70
27671;DHT22;15077;49.704;9.908;2022-08-30T07:35:56;20.50;53.80
27671;DHT22;15077;49.704;9.908;2022-08-30T07:38:24;20.50;53.90
27671;DHT22;15077;49.704;9.908;2022-08-30T07:40:51;20.60;53.90
27671;DHT22;15077;49.704;9.908;2022-08-30T07:43:17;20.70;53.80
27671;DHT22;15077;49.704;9.908;2022-08-30T07:45:43;20.70;53.70
27671;DHT22;15077;49.704;9.908;2022-08-30T07:48:10;20.80;53.80
27671;DHT22;15077;49.704;9.908;2022-08-30T07:50:41;20.90;53.90
27671;DHT22;15077;49.704;9.908;2022-08-30T07:53:09;21.00;54.10
27671;DHT22;15077;49.704;9.908;2022-08-30T07:55:35;21.10;54.00
27671;DHT22;15077;49.704;9.908;2022-08-30T07:58:01;21.20;54.20
27671;DHT22;15077;49.704;9.908;2022-08-30T08:00:27;21.20;53.90
27671;DHT22;15077;49.704;9.908;2022-08-30T08:02:53;21.40;54.20
27671;DHT22;15077;49.704;9.908;2022-08-30T08:05:19;21.40;54.00
27671;DHT22;15077;49.704;9.908;2022-08-30T08:07:46;21.50;54.20
27671;DHT22;15077;49.704;9.908;2022-08-30T08:10:12;21.60;53.80
27671;DHT22;15077;49.704;9.908;2022-08-30T08:12:39;21.70;53.70
27671;DHT22;15077;49.704;9.908;2022-08-30T08:15:06;21.80;54.00
27671;DHT22;15077;49.704;9.908;2022-08-30T08:17:32;21.80;54.00
27671;DHT22;15077;49.704;9.908;2022-08-30T08:19:58;21.90;53.70
27671;DHT22;15077;49.704;9.908;2022-08-30T08:22:24;22.00;53.70
27671;DHT22;15077;49.704;9.908;2022-08-30T08:24:50;22.10;53.80
27671;DHT22;15077;49.704;9.908;2022-08-30T08:27:16;22.20;53.50
27671;DHT22;15077;49.704;9.908;2022-08-30T08:29:42;22.30;53.70
27671;DHT22;15077;49.704;9.908;2022-08-30T08:32:08;22.30;53.40
27671;DHT22;15077;49.704;9.908;2022-08-30T08:34:35;22.40;53.40
27671;DHT22;15077;49.704;9.908;2022-08-30T08:37:01;22.50;53.40
27671;DHT22;15077;49.704;9.908;2022-08-30T08:39:27;22.60;53.20
27671;DHT22;15077;49.704;9.908;2022-08-30T08:44:46;22.80;53.10
27671;DHT22;15077;49.704;9.908;2022-08-30T08:47:41;22.90;52.80
27671;DHT22;15077;49.704;9.908;2022-08-30T08:50:15;23.00;52.80
27671;DHT22;15077;49.704;9.908;2022-08-30T08:52:57;23.10;52.50
27671;DHT22;15077;49.704;9.908;2022-08-30T08:55:50;23.20;52.60
27671;DHT22;15077;49.704;9.908;2022-08-30T08:58:26;23.30;52.30
27671;DHT22;15077;49.704;9.908;2022-08-30T09:00:56;23.40;52.40
27671;DHT22;15077;49.704;9.908;2022-08-30T09:03:25;23.50;52.30
27671;DHT22;15077;49.704;9.908;2022-08-30T09:05:53;23.60;52.20
27671;DHT22;15077;49.704;9.908;2022-08-30T09:08:22;23.70;52.10
27671;DHT22;15077;49.704;9.908;2022-08-30T09:10:53;23.80;52.00
27671;DHT22;15077;49.704;9.908;2022-08-30T09:13:24;23.90;51.90
27671;DHT22;15077;49.704;9.908;2022-08-30T09:15:52;24.10;51.90
27671;DHT22;15077;49.704;9.908;2022-08-30T09:18:20;24.20;51.80
27671;DHT22;15077;49.704;9.908;2022-08-30T09:21:09;24.30;51.70
27671;DHT22;15077;49.704;9.908;2022-08-30T09:23:49;24.40;51.40
27671;DHT22;15077;49.704;9.908;2022-08-30T09:26:28;24.60;50.90
27671;DHT22;15077;49.704;9.908;2022-08-30T09:29:00;24.70;51.10
27671;DHT22;15077;49.704;9.908;2022-08-30T09:31:31;24.90;51.20
27671;DHT22;15077;49.704;9.908;2022-08-30T09:34:17;25.00;51.10
27671;DHT22;15077;49.704;9.908;2022-08-30T09:36:52;25.10;50.70
27671;DHT22;15077;49.704;9.908;2022-08-30T09:39:32;25.30;50.60
27671;DHT22;15077;49.704;9.908;2022-08-30T09:42:31;25.40;50.10
27671;DHT22;15077;49.704;9.908;2022-08-30T09:44:57;25.60;49.80
27671;DHT22;15077;49.704;9.908;2022-08-30T09:47:42;25.60;49.40
27671;DHT22;15077;49.704;9.908;2022-08-30T09:58:56;26.00;48.80
27671;DHT22;15077;49.704;9.908;2022-08-30T10:02:11;26.10;48.90
27671;DHT22;15077;49.704;9.908;2022-08-30T10:19:19;27.00;47.50
27671;DHT22;15077;49.704;9.908;2022-08-30T10:22:01;27.10;46.90
27671;DHT22;15077;49.704;9.908;2022-08-30T10:24:52;27.20;47.20
27671;DHT22;15077;49.704;9.908;2022-08-30T10:27:46;27.40;47.10
27671;DHT22;15077;49.704;9.908;2022-08-30T10:30:17;27.60;46.50
27671;DHT22;15077;49.704;9.908;2022-08-30T10:35:27;27.80;46.20
27671;DHT22;15077;49.704;9.908;2022-08-30T10:38:01;28.00;45.60
27671;DHT22;15077;49.704;9.908;2022-08-30T10:40:35;28.10;45.60
27671;DHT22;15077;49.704;9.908;2022-08-30T10:43:36;28.30;44.90
27671;DHT22;15077;49.704;9.908;2022-08-30T10:46:12;28.40;44.20
27671;DHT22;15077;49.704;9.908;2022-08-30T10:48:44;28.50;44.20
27671;DHT22;15077;49.704;9.908;2022-08-30T10:51:35;28.70;44.10
27671;DHT22;15077;49.704;9.908;2022-08-30T10:54:17;28.80;43.50
27671;DHT22;15077;49.704;9.908;2022-08-30T10:56:49;29.00;42.70
27671;DHT22;15077;49.704;9.908;2022-08-30T10:59:18;29.10;42.40
27671;DHT22;15077;49.704;9.908;2022-08-30T11:07:37;29.40;41.20
27671;DHT22;15077;49.704;9.908;2022-08-30T11:13:24;29.60;41.30
27671;DHT22;15077;49.704;9.908;2022-08-30T11:21:36;29.90;40.00
27671;DHT22;15077;49.704;9.908;2022-08-30T11:24:13;29.90;39.70
27671;DHT22;15077;49.704;9.908;2022-08-30T11:49:02;30.60;38.50
27671;DHT22;15077;49.704;9.908;2022-08-30T11:52:26;30.70;38.20
27671;DHT22;15077;49.704;9.908;2022-08-30T11:54:55;30.80;39.00
27671;DHT22;15077;49.704;9.908;2022-08-30T12:00:31;30.90;38.60
27671;DHT22;15077;49.704;9.908;2022-08-30T12:05:53;31.20;38.90
27671;DHT22;15077;49.704;9.908;2022-08-30T12:16:07;31.40;36.60
27671;DHT22;15077;49.704;9.908;2022-08-30T12:18:50;31.40;37.10
27671;DHT22;15077;49.704;9.908;2022-08-30T12:28:53;31.60;37.30
27671;DHT22;15077;49.704;9.908;2022-08-30T12:31:31;31.60;37.10
27671;DHT22;15077;49.704;9.908;2022-08-30T12:34:05;31.70;37.20
27671;DHT22;15077;49.704;9.908;2022-08-30T12:36:39;31.80;36.00
27671;DHT22;15077;49.704;9.908;2022-08-30T12:39:19;31.90;35.40
27671;DHT22;15077;49.704;9.908;2022-08-30T12:41:48;31.90;37.00
27671;DHT22;15077;49.704;9.908;2022-08-30T12:44:26;31.90;35.90
27671;DHT22;15077;49.704;9.908;2022-08-30T12:46:59;31.90;35.70
27671;DHT22;15077;49.704;9.908;2022-08-30T12:49:31;32.00;35.30
27671;DHT22;15077;49.704;9.908;2022-08-30T13:00:44;32.10;35.90
27671;DHT22;15077;49.704;9.908;2022-08-30T13:03:35;32.20;36.20
27671;DHT22;15077;49.704;9.908;2022-08-30T13:06:02;32.30;36.20
27671;DHT22;15077;49.704;9.908;2022-08-30T13:08:36;32.40;34.70
27671;DHT22;15077;49.704;9.908;2022-08-30T13:13:49;32.40;33.80
27671;DHT22;15077;49.704;9.908;2022-08-30T13:18:48;32.40;34.80
27671;DHT22;15077;49.704;9.908;2022-08-30T13:24:03;32.50;34.20
27671;DHT22;15077;49.704;9.908;2022-08-30T13:26:36;32.40;33.90
27671;DHT22;15077;49.704;9.908;2022-08-30T13:29:06;32.50;34.20
27671;DHT22;15077;49.704;9.908;2022-08-30T13:31:32;32.50;34.20
27671;DHT22;15077;49.704;9.908;2022-08-30T13:34:00;32.50;33.80
27671;DHT22;15077;49.704;9.908;2022-08-30T13:36:33;32.50;33.90
27671;DHT22;15077;49.704;9.908;2022-08-30T13:39:01;32.50;33.20
27671;DHT22;15077;49.704;9.908;2022-08-30T13:41:28;32.50;33.40
27671;DHT22;15077;49.704;9.908;2022-08-30T13:43:54;32.50;34.00
27671;DHT22;15077;49.704;9.908;2022-08-30T13:46:21;32.50;33.90
27671;DHT22;15077;49.704;9.908;2022-08-30T13:48:50;32.50;34.00
27671;DHT22;15077;49.704;9.908;2022-08-30T13:51:21;32.50;34.20
27671;DHT22;15077;49.704;9.908;2022-08-30T13:53:47;32.60;34.20
27671;DHT22;15077;49.704;9.908;2022-08-30T13:56:13;32.70;33.70
27671;DHT22;15077;49.704;9.908;2022-08-30T13:58:39;32.70;33.60
27671;DHT22;15077;49.704;9.908;2022-08-30T14:01:05;32.80;33.40
27671;DHT22;15077;49.704;9.908;2022-08-30T14:03:31;32.90;33.40
27671;DHT22;15077;49.704;9.908;2022-08-30T14:05:56;32.90;33.30
27671;DHT22;15077;49.704;9.908;2022-08-30T14:08:27;32.90;33.00
27671;DHT22;15077;49.704;9.908;2022-08-30T14:10:55;32.90;33.00
27671;DHT22;15077;49.704;9.908;2022-08-30T14:13:22;33.00;33.20
27671;DHT22;15077;49.704;9.908;2022-08-30T14:15:50;33.00;33.20
27671;DHT22;15077;49.704;9.908;2022-08-30T14:18:17;33.10;33.20
27671;DHT22;15077;49.704;9.908;2022-08-30T14:20:42;33.10;33.10
27671;DHT22;15077;49.704;9.908;2022-08-30T14:23:08;33.20;33.10
27671;DHT22;15077;49.704;9.908;2022-08-30T14:25:34;33.20;33.10
27671;DHT22;15077;49.704;9.908;2022-08-30T14:28:00;33.30;33.30
27671;DHT22;15077;49.704;9.908;2022-08-30T14:30:26;33.30;33.20
27671;DHT22;15077;49.704;9.908;2022-08-30T14:32:52;33.30;32.30
27671;DHT22;15077;49.704;9.908;2022-08-30T14:35:18;33.40;32.00
27671;DHT22;15077;49.704;9.908;2022-08-30T14:37:46;33.30;31.60
27671;DHT22;15077;49.704;9.908;2022-08-30T14:40:13;33.30;32.20
27671;DHT22;15077;49.704;9.908;2022-08-30T14:42:40;33.30;32.20
27671;DHT22;15077;49.704;9.908;2022-08-30T14:45:06;33.20;32.50
27671;DHT22;15077;49.704;9.908;2022-08-30T14:47:32;33.20;32.40
27671;DHT22;15077;49.704;9.908;2022-08-30T14:49:58;33.20;32.70
27671;DHT22;15077;49.704;9.908;2022-08-30T14:52:27;33.20;32.50
27671;DHT22;15077;49.704;9.908;2022-08-30T14:54:53;33.20;32.60
27671;DHT22;15077;49.704;9.908;2022-08-30T14:57:19;33.20;32.80
27671;DHT22;15077;49.704;9.908;2022-08-30T14:59:45;33.20;33.00
27671;DHT22;15077;49.704;9.908;2022-08-30T15:02:11;33.30;32.10
27671;DHT22;15077;49.704;9.908;2022-08-30T15:04:37;33.30;32.10
27671;DHT22;15077;49.704;9.908;2022-08-30T15:07:03;33.30;31.80
27671;DHT22;15077;49.704;9.908;2022-08-30T15:09:29;33.30;32.10
27671;DHT22;15077;49.704;9.908;2022-08-30T15:11:57;33.20;31.90
27671;DHT22;15077;49.704;9.908;2022-08-30T15:14:29;33.20;32.00
27671;DHT22;15077;49.704;9.908;2022-08-30T15:16:57;33.10;32.00
27671;DHT22;15077;49.704;9.908;2022-08-30T15:19:24;33.10;31.90
27671;DHT22;15077;49.704;9.908;2022-08-30T15:21:51;33.10;32.50
27671;DHT22;15077;49.704;9.908;2022-08-30T15:24:20;33.10;31.90
27671;DHT22;15077;49.704;9.908;2022-08-30T15:26:48;33.00;31.90
27671;DHT22;15077;49.704;9.908;2022-08-30T15:29:16;32.90;31.70
27671;DHT22;15077;49.704;9.908;2022-08-30T15:31:45;32.90;31.70
27671;DHT22;15077;49.704;9.908;2022-08-30T15:34:17;32.80;31.90
27671;DHT22;15077;49.704;9.908;2022-08-30T15:36:46;32.80;31.90
27671;DHT22;15077;49.704;9.908;2022-08-30T15:39:13;32.80;32.00
27671;DHT22;15077;49.704;9.908;2022-08-30T15:41:41;32.80;32.10
27671;DHT22;15077;49.704;9.908;2022-08-30T15:44:08;32.80;32.10
27671;DHT22;15077;49.704;9.908;2022-08-30T15:46:36;32.80;32.00
27671;DHT22;15077;49.704;9.908;2022-08-30T15:49:13;32.80;32.10
27671;DHT22;15077;49.704;9.908;2022-08-30T15:51:43;32.90;32.00
27671;DHT22;15077;49.704;9.908;2022-08-30T15:54:13;32.90;32.00
27671;DHT22;15077;49.704;9.908;2022-08-30T15:56:40;32.90;31.80
27671;DHT22;15077;49.704;9.908;2022-08-30T15:59:07;32.90;31.70
27671;DHT22;15077;49.704;9.908;2022-08-30T16:01:33;33.00;31.70
27671;DHT22;15077;49.704;9.908;2022-08-30T16:04:00;33.00;31.40
27671;DHT22;15077;49.704;9.908;2022-08-30T16:06:29;33.00;31.50
27671;DHT22;15077;49.704;9.908;2022-08-30T16:08:57;33.00;31.30
27671;DHT22;15077;49.704;9.908;2022-08-30T16:11:24;33.00;31.20
27671;DHT22;15077;49.704;9.908;2022-08-30T16:13:56;33.00;30.80
27671;DHT22;15077;49.704;9.908;2022-08-30T16:16:22;33.00;30.80
27671;DHT22;15077;49.704;9.908;2022-08-30T16:18:49;33.00;31.40
27671;DHT22;15077;49.704;9.908;2022-08-30T16:21:19;32.90;31.00
27671;DHT22;15077;49.704;9.908;2022-08-30T16:23:48;32.90;31.00
27671;DHT22;15077;49.704;9.908;2022-08-30T16:26:15;32.90;30.80
27671;DHT22;15077;49.704;9.908;2022-08-30T16:28:45;32.80;30.90
27671;DHT22;15077;49.704;9.908;2022-08-30T16:31:13;32.70;30.70
27671;DHT22;15077;49.704;9.908;2022-08-30T16:33:40;32.70;30.80
27671;DHT22;15077;49.704;9.908;2022-08-30T16:36:07;32.60;30.70
27671;DHT22;15077;49.704;9.908;2022-08-30T16:38:35;32.50;30.50
27671;DHT22;15077;49.704;9.908;2022-08-30T16:41:10;32.40;30.60
27671;DHT22;15077;49.704;9.908;2022-08-30T16:43:38;32.40;30.60
27671;DHT22;15077;49.704;9.908;2022-08-30T16:46:07;32.30;30.60
27671;DHT22;15077;49.704;9.908;2022-08-30T16:48:35;32.20;30.80
27671;DHT22;15077;49.704;9.908;2022-08-30T16:51:07;32.10;31.00
27671;DHT22;15077;49.704;9.908;2022-08-30T16:53:35;32.00;31.00
27671;DHT22;15077;49.704;9.908;2022-08-30T16:56:13;32.00;31.40
27671;DHT22;15077;49.704;9.908;2022-08-30T16:58:45;31.90;31.70
27671;DHT22;15077;49.704;9.908;2022-08-30T17:01:17;31.80;31.80
27671;DHT22;15077;49.704;9.908;2022-08-30T17:03:45;31.70;32.00
27671;DHT22;15077;49.704;9.908;2022-08-30T17:06:13;31.60;32.10
27671;DHT22;15077;49.704;9.908;2022-08-30T17:08:39;31.40;32.20
27671;DHT22;15077;49.704;9.908;2022-08-30T17:11:05;31.40;32.30
27671;DHT22;15077;49.704;9.908;2022-08-30T17:13:34;31.20;32.40
27671;DHT22;15077;49.704;9.908;2022-08-30T17:16:02;31.10;32.50
27671;DHT22;15077;49.704;9.908;2022-08-30T17:18:29;31.00;32.60
27671;DHT22;15077;49.704;9.908;2022-08-30T17:20:56;30.90;32.70
27671;DHT22;15077;49.704;9.908;2022-08-30T17:23:22;30.80;32.70
27671;DHT22;15077;49.704;9.908;2022-08-30T17:25:48;30.70;32.90
27671;DHT22;15077;49.704;9.908;2022-08-30T17:28:14;30.60;33.10
27671;DHT22;15077;49.704;9.908;2022-08-30T17:30:39;30.60;33.10